createdAt,value
2022-11-09T00:01:48.876Z,13.48
2022-11-09T00:06:52.919Z,13.45
2022-11-09T00:11:54.649Z,13.37
2022-11-09T00:16:56.657Z,13.31
2022-11-09T00:21:58.062Z,13.29
2022-11-09T00:26:59.489Z,13.25
2022-11-09T00:32:03.869Z,13.20
2022-11-09T00:37:05.286Z,13.16
2022-11-09T00:42:07.308Z,13.11
2022-11-09T00:47:08.711Z,13.08
2022-11-09T00:52:10.085Z,13.08
2022-11-09T00:57:13.285Z,13.13
2022-11-09T01:02:18.538Z,13.16
2022-11-09T01:07:20.006Z,13.17
2022-11-09T01:12:22.172Z,13.24
2022-11-09T01:17:26.358Z,13.29
2022-11-09T01:22:29.741Z,13.33
2022-11-09T01:27:32.748Z,13.36
2022-11-09T01:32:34.442Z,13.37
2022-11-09T01:37:35.842Z,13.39
2022-11-09T01:42:37.919Z,13.41
2022-11-09T01:47:39.359Z,13.38
2022-11-09T01:52:44.579Z,13.35
2022-11-09T01:57:56.206Z,13.30
2022-11-09T02:03:05.528Z,13.18
2022-11-09T02:08:12.537Z,13.04
2022-11-09T02:13:17.322Z,12.92
2022-11-09T02:18:19.685Z,12.88
2022-11-09T02:23:22.097Z,12.84
2022-11-09T02:28:26.321Z,12.79
2022-11-09T02:33:28.012Z,12.76
2022-11-09T02:38:30.023Z,12.74
2022-11-09T02:43:31.441Z,12.75
2022-11-09T02:48:34.728Z,12.68
2022-11-09T02:53:36.289Z,12.60
2022-11-09T02:58:37.787Z,12.51
2022-11-09T03:03:39.414Z,12.39
2022-11-09T03:08:40.842Z,12.17
2022-11-09T03:13:42.801Z,11.93
2022-11-09T03:18:44.289Z,11.84
2022-11-09T03:23:46.047Z,11.84
2022-11-09T03:28:48.124Z,11.79
2022-11-09T03:33:49.607Z,11.68
2022-11-09T03:38:51.101Z,11.59
2022-11-09T03:43:52.608Z,11.49
2022-11-09T03:48:53.968Z,11.35
2022-11-09T03:53:55.404Z,11.22
2022-11-09T03:58:56.775Z,11.15
2022-11-09T04:03:58.326Z,11.09
2022-11-09T04:08:59.683Z,11.03
2022-11-09T04:14:01.160Z,10.96
2022-11-09T04:19:02.535Z,10.91
2022-11-09T04:24:04.186Z,10.87
2022-11-09T04:29:05.548Z,10.89
2022-11-09T04:34:06.911Z,10.99
2022-11-09T04:39:08.489Z,11.09
2022-11-09T04:44:09.869Z,11.12
2022-11-09T04:49:11.280Z,11.19
2022-11-09T04:54:14.317Z,11.23
2022-11-09T04:59:15.673Z,11.21
2022-11-09T05:04:17.185Z,11.23
2022-11-09T05:09:18.816Z,11.27
2022-11-09T05:14:20.196Z,11.27
2022-11-09T05:19:21.593Z,11.32
2022-11-09T05:24:22.984Z,11.38
2022-11-09T05:29:24.364Z,11.42
2022-11-09T05:34:25.750Z,11.39
2022-11-09T05:39:27.131Z,11.32
2022-11-09T05:44:28.547Z,11.31
2022-11-09T05:49:29.926Z,11.36
2022-11-09T05:54:31.634Z,11.44
2022-11-09T05:59:33.017Z,11.47
2022-11-09T06:04:34.427Z,11.46
2022-11-09T06:09:35.916Z,11.43
2022-11-09T06:14:37.310Z,11.42
2022-11-09T06:19:38.731Z,11.34
2022-11-09T06:24:40.207Z,11.30
2022-11-09T06:29:41.597Z,11.29
2022-11-09T06:34:44.211Z,11.30
2022-11-09T06:39:47.223Z,11.39
2022-11-09T06:44:48.945Z,11.44
2022-11-09T06:49:50.366Z,11.51
2022-11-09T06:54:51.744Z,11.61
2022-11-09T06:59:53.159Z,11.69
2022-11-09T07:04:54.736Z,11.71
2022-11-09T07:09:57.295Z,11.74
2022-11-09T07:14:58.659Z,11.81
2022-11-09T07:20:00.607Z,11.95
2022-11-09T07:25:02.108Z,12.16
2022-11-09T07:30:04.333Z,12.39
2022-11-09T07:35:06.597Z,12.58
2022-11-09T07:40:08.855Z,12.73
2022-11-09T07:45:10.433Z,12.87
2022-11-09T07:50:11.922Z,12.95
2022-11-09T07:55:13.304Z,12.96
2022-11-09T08:00:18.723Z,12.99
2022-11-09T08:05:23.065Z,13.04
2022-11-09T08:10:26.643Z,13.13
2022-11-09T08:15:28.634Z,13.18
2022-11-09T08:20:30.969Z,13.24
2022-11-09T08:25:34.258Z,13.30
2022-11-09T08:30:35.727Z,13.37
2022-11-09T08:35:37.421Z,13.47
2022-11-09T08:40:38.835Z,13.55
2022-11-09T08:45:41.318Z,13.62
2022-11-09T08:50:42.754Z,13.67
2022-11-09T08:55:49.213Z,13.76
2022-11-09T09:00:51.355Z,13.82
2022-11-09T09:05:52.725Z,13.88
2022-11-09T09:10:54.122Z,13.94
2022-11-09T09:15:55.555Z,13.96
2022-11-09T09:20:57.026Z,13.99
2022-11-09T09:25:58.838Z,14.03
2022-11-09T09:31:01.474Z,14.07
2022-11-09T09:36:03.117Z,14.07
2022-11-09T09:41:06.652Z,14.10
2022-11-09T09:46:18.579Z,14.15
2022-11-09T09:51:32.262Z,14.20
2022-11-09T09:56:37.435Z,14.24
2022-11-09T10:01:42.180Z,14.32
2022-11-09T10:06:46.382Z,14.38
2022-11-09T10:12:08.529Z,14.44
2022-11-09T10:17:25.026Z,14.49
2022-11-09T10:22:39.017Z,14.55
2022-11-09T10:27:51.702Z,14.58
2022-11-09T10:32:57.695Z,14.65
2022-11-09T10:37:59.070Z,14.70
2022-11-09T10:43:02.953Z,14.60
2022-11-09T10:48:35.975Z,14.46
2022-11-09T10:54:21.076Z,14.32
2022-11-09T10:59:51.036Z,14.25
2022-11-09T11:05:12.617Z,14.20
2022-11-09T11:10:32.470Z,14.16
2022-11-09T11:15:52.466Z,14.15
2022-11-09T11:21:19.670Z,14.22
2022-11-09T11:26:47.204Z,14.45
2022-11-09T11:32:15.446Z,14.75
2022-11-09T11:37:45.968Z,14.91
2022-11-09T11:43:33.517Z,14.96
2022-11-09T11:49:00.861Z,14.99
2022-11-09T11:54:32.864Z,15.06
2022-11-09T12:00:08.942Z,15.27
2022-11-09T12:05:55.192Z,15.44
2022-11-09T12:11:40.103Z,15.50
2022-11-09T12:17:03.170Z,15.50
2022-11-09T12:22:43.717Z,15.48
2022-11-09T12:28:34.948Z,15.39
2022-11-09T12:34:01.756Z,15.29
2022-11-09T12:39:36.185Z,15.22
2022-11-09T12:45:05.145Z,15.22
2022-11-09T12:50:26.752Z,15.27
2022-11-09T12:55:55.372Z,15.38
2022-11-09T13:01:33.608Z,15.59
2022-11-09T13:07:03.084Z,16.37
2022-11-09T13:12:42.902Z,16.94
2022-11-09T13:18:24.949Z,17.02
2022-11-09T13:24:03.708Z,16.76
2022-11-09T13:29:40.572Z,16.70
2022-11-09T13:35:01.888Z,16.51
2022-11-09T13:40:31.146Z,16.37
2022-11-09T13:45:58.469Z,16.25
2022-11-09T13:51:46.875Z,16.13
2022-11-09T13:57:07.128Z,15.97
2022-11-09T14:02:27.470Z,15.86
2022-11-09T14:07:47.460Z,15.73
2022-11-09T14:13:21.098Z,15.56
2022-11-09T14:18:58.791Z,15.42
2022-11-09T14:24:34.994Z,15.28
2022-11-09T14:29:57.284Z,15.13
2022-11-09T14:35:32.738Z,14.99
2022-11-09T14:40:54.003Z,14.84
2022-11-09T14:46:20.307Z,14.72
2022-11-09T14:51:40.495Z,14.61
2022-11-09T14:57:00.876Z,14.49
2022-11-09T15:02:23.396Z,14.36
2022-11-09T15:07:47.457Z,14.24
2022-11-09T15:13:07.795Z,14.10
2022-11-09T15:18:34.545Z,13.96
2022-11-09T15:24:06.150Z,13.79
2022-11-09T15:29:41.738Z,13.64
2022-11-09T15:35:02.026Z,13.51
2022-11-09T15:40:24.936Z,13.40
2022-11-09T15:45:44.920Z,13.30
2022-11-09T15:51:04.975Z,13.17
2022-11-09T15:56:25.092Z,13.11
2022-11-09T16:01:45.890Z,13.16
2022-11-09T16:07:08.060Z,13.22
2022-11-09T16:12:30.429Z,13.28
2022-11-09T16:17:52.578Z,13.33
2022-11-09T16:23:12.992Z,13.36
2022-11-09T16:28:33.193Z,13.36
2022-11-09T16:33:53.102Z,13.32
2022-11-09T16:39:18.060Z,13.31
2022-11-09T16:44:43.869Z,13.26
2022-11-09T16:51:06.510Z,13.14
2022-11-09T16:56:38.943Z,13.07
2022-11-09T17:02:04.065Z,13.00
2022-11-09T17:21:21.312Z,12.88
2022-11-09T17:32:27.487Z,12.87
2022-11-09T17:38:25.353Z,12.91
2022-11-09T17:43:48.779Z,12.95
2022-11-09T17:54:51.509Z,12.98
2022-11-09T18:00:22.758Z,12.97
2022-11-09T18:05:45.070Z,13.01
2022-11-09T18:11:05.516Z,13.07
2022-11-09T18:16:25.689Z,13.10
2022-11-09T18:21:47.125Z,13.14
2022-11-09T18:27:07.485Z,13.17
2022-11-09T18:32:27.542Z,13.23
2022-11-09T18:37:48.631Z,13.29
2022-11-09T18:43:08.662Z,13.31
2022-11-09T18:48:29.093Z,13.33
2022-11-09T18:53:49.117Z,13.31
2022-11-09T18:59:12.733Z,13.30
2022-11-09T19:04:33.281Z,13.29
2022-11-09T19:09:56.481Z,13.32
2022-11-09T19:15:17.304Z,13.34
2022-11-09T19:26:07.808Z,13.46
2022-11-09T19:31:28.987Z,13.49
2022-11-09T19:36:49.359Z,13.51
2022-11-09T19:42:09.830Z,13.52
2022-11-09T19:47:29.775Z,13.52
2022-11-09T19:52:49.601Z,13.54
2022-11-09T19:58:10.165Z,13.55
2022-11-09T20:03:30.465Z,13.56
2022-11-09T20:08:51.947Z,13.55
2022-11-09T20:14:12.986Z,13.53
2022-11-09T20:19:33.076Z,13.47
2022-11-09T20:24:53.138Z,13.42
2022-11-09T20:30:13.702Z,13.37
2022-11-09T20:35:33.889Z,13.34
2022-11-09T20:40:58.576Z,13.34
2022-11-09T20:46:21.481Z,13.30
2022-11-09T20:51:41.510Z,13.29
2022-11-09T20:57:01.701Z,13.28
2022-11-09T21:02:21.728Z,13.29
2022-11-09T21:07:41.905Z,13.30
2022-11-09T21:13:01.767Z,13.30
2022-11-09T21:18:22.197Z,13.30
2022-11-09T21:24:01.993Z,13.29
2022-11-09T21:29:42.729Z,13.23
2022-11-09T21:35:03.738Z,13.22
2022-11-09T21:40:24.637Z,13.20
2022-11-09T21:45:49.073Z,13.16
2022-11-09T21:51:09.351Z,13.15
2022-11-09T21:56:29.348Z,13.16
2022-11-09T22:01:49.750Z,13.19
2022-11-09T22:07:10.016Z,13.21
2022-11-09T22:12:48.857Z,13.21
2022-11-09T22:18:29.049Z,13.22
2022-11-09T22:23:49.352Z,13.10
2022-11-09T22:29:09.371Z,13.10
2022-11-09T22:34:29.198Z,13.12
2022-11-09T22:39:49.053Z,13.10
2022-11-09T22:45:09.452Z,13.03
2022-11-09T22:50:29.400Z,13.02
2022-11-09T22:55:56.872Z,12.98
2022-11-09T23:01:20.118Z,12.93
2022-11-09T23:06:40.043Z,12.85
2022-11-09T23:12:00.383Z,12.74
2022-11-09T23:17:39.087Z,12.68
2022-11-09T23:22:59.171Z,12.67
2022-11-09T23:28:19.712Z,12.64
2022-11-09T23:33:40.106Z,12.63
2022-11-09T23:38:59.970Z,12.63
2022-11-09T23:44:19.826Z,12.59
2022-11-09T23:49:39.988Z,12.54
2022-11-09T23:55:00.232Z,12.58
